• Join FlightAware (Why Join?)
  • Login
  • US Flag 
10:15AM EDT


 

Airport Tracker/Info


-or-


 

Live Flight TrackerFlight Track Log ✈ AWE3434 ✈ 08.05.2013 ✈ KPHL - KCMH

Flight Track Log - Related Links

Times and Time Zones

All times are in EDT time to prevent confusion due to time zone crossing. See the AWE3434 flight status page for this flight to view local times or setup timezone preferences in your user account.

Time Position Orientation Groundspeed Altitude Reporting Facility
EDT Latitude Longitude Course Direction KTS MPH feet Rate Location/Type
05:13PM 39.8667 -75.2833 281° West 165 190 700  Level Philadelphia TRACON
05:13PM 39.8667 -75.3000 270° West 163 188 1,500 2,160 Climbing Philadelphia TRACON
05:14PM 39.8500 -75.3667 252° West 237 273 3,800 2,700 Climbing Philadelphia TRACON
05:15PM 39.8667 -75.4500 285° West 281 323 6,900 3,180 Climbing Philadelphia TRACON
05:16PM 40.6639 -77.0259 289° West  Level FlightAware Approximate
05:16PM 39.9500 -75.4167 17° North 299 344 9,900  Level Philadelphia TRACON
05:17PM 40.7952 -77.5514 288° West  Level FlightAware Approximate
05:17PM 40.0333 -75.3833 17° North 319 367 12,800  Level Philadelphia TRACON
05:18PM 40.9189 -78.0821 281° West  Level FlightAware Approximate
05:18PM 40.1167 -75.3667 North 353 406 13,000  Level Philadelphia TRACON
05:19PM 40.2000 -75.3444 12° North 369 425 13,000  Level New York Center
05:20PM 40.3058 -75.3542 356° North 390 449 13,000  Level New York Center
05:21PM 40.3908 -75.4200 329° Northwest 368 423 13,000 1,020 Level New York Center
05:22PM 40.4064 -75.5492 279° West 320 368 15,100 2,340 Climbing New York Center
05:23PM 40.4097 -75.6719 272° West 325 374 17,800 2,820 Climbing New York Center
05:24PM 40.4350 -75.8156 283° West 347 399 20,800 2,820 Climbing New York Center
05:25PM 40.4481 -75.9475 277° West 360 414 23,400 2,160 Climbing New York Center
05:26PM 40.4694 -76.0772 282° West 365 420 25,300 1,860 Climbing New York Center
05:27PM 40.4922 -76.2183 282° West 377 434 27,300 1,500 Climbing New York Center
05:28PM 40.5128 -76.3592 281° West 383 441 28,300 960 Climbing New York Center
05:29PM 40.5386 -76.5114 283° West 402 463 29,300 780 Climbing New York Center
05:30PM 40.5686 -76.6669 284° West 426 490 30,000 300 Climbing New York Center
05:31PM 40.6125 -76.8294 290° West 453 521 30,000  Level New York Center
05:32PM 40.6597 -77.0031 290° West 485 558 30,000  Level New York Center
05:33PM 40.7153 -77.1753 293° West 503 579 30,000  Level New York Center
05:34PM 40.7797 -77.3294 299° West 503 579 30,000  Level New York Center
05:35PM 40.8456 -77.4922 298° West 503 579 30,000  Level New York Center
05:37PM 40.8936 -77.7731 283° West 489 563 30,000  Level Cleveland Center
05:38PM 40.9147 -77.9589 279° West 501 577 30,000  Level Cleveland Center
05:39PM 40.9375 -78.1367 280° West 506 582 30,000  Level Cleveland Center
05:40PM 40.9644 -78.3367 280° West 500 575 30,000  Level Cleveland Center
05:41PM 40.9867 -78.5172 279° West 500 575 30,000  Level Cleveland Center
05:42PM 41.0064 -78.6956 278° West 500 575 30,000  Level Cleveland Center
05:43PM 41.0281 -78.8794 279° West 500 575 30,000  Level Cleveland Center
05:44PM 41.0472 -79.0578 278° West 500 575 30,000  Level Cleveland Center
05:45PM 41.0683 -79.2392 279° West 500 575 30,000 -60 Level Cleveland Center
05:46PM 41.0889 -79.4178 279° West 500 575 29,900 -540 Descending Cleveland Center
05:47PM 41.1094 -79.5967 279° West 500 575 29,000 -960 Descending Cleveland Center
05:48PM 41.0919 -79.7731 263° West 485 558 28,000 -540 Descending Cleveland Center
05:49PM 41.0431 -79.9361 248° West 485 558 28,000  Level Cleveland Center
05:50PM 40.9939 -80.1044 249° West 480 552 28,000  Level Cleveland Center
05:51PM 40.9381 -80.2725 246° West 490 564 28,000  Level Cleveland Center
05:52PM 40.8842 -80.4347 246° West 495 570 28,000  Level Cleveland Center
05:53PM 40.8300 -80.6022 247° West 501 577 28,000 -60 Level Cleveland Center
05:54PM 40.7778 -80.7642 247° West 494 568 27,900 -420 Descending Cleveland Center
05:55PM 40.7233 -80.9256 246° West 481 554 27,200 -780 Descending Cleveland Center
05:56PM 40.6664 -81.0894 245° Southwest 487 560 26,400 -780 Descending Cleveland Center
05:57PM 40.6133 -81.2478 246° West 487 560 25,700 -1,200 Descending Cleveland Center
05:59PM 40.4997 -81.5856 246° West 461 531 22,700 -1,740 Descending Indianapolis Center
06:00PM 40.4500 -81.7303 246° West 435 501 20,300 -2,280 Descending Indianapolis Center
06:01PM 40.4025 -81.8686 246° West 415 478 18,100 -2,280 Descending Indianapolis Center
06:02PM 40.3547 -82.0061 246° West 410 472 15,700 -2,460 Descending Indianapolis Center
06:03PM 40.3067 -82.1469 246° West 381 438 13,100 -2,280 Descending Indianapolis Center
06:04PM 40.2686 -82.2528 245° Southwest 356 410 11,100 -1,920 Descending Indianapolis Center
06:05PM 40.2247 -82.3603 242° Southwest 305 351 9,200 -2,100 Descending Indianapolis Center
06:06PM 40.1636 -82.4294 221° Southwest 285 328 6,900 -2,040 Descending Indianapolis Center
06:07PM 40.1144 -82.5131 232° Southwest 280 322 5,100 -1,620 Descending Indianapolis Center
06:08PM 40.0719 -82.5953 236° Southwest 275 316 3,500 -1,080 Descending Indianapolis Center
06:09PM 40.0297 -82.6750 235° Southwest 268 308 2,900 -600 Descending Indianapolis Center